sensor_id;sensor_type;location;lat;lon;timestamp;P1;durP1;ratioP1;P2;durP2;ratioP2
4049;SDS011;2039;50.894;6.888;2022-10-16T00:01:09;67.67;;;10.30;;
4049;SDS011;2039;50.894;6.888;2022-10-16T00:03:38;67.20;;;10.57;;
4049;SDS011;2039;50.894;6.888;2022-10-16T00:06:06;67.40;;;9.20;;
4049;SDS011;2039;50.894;6.888;2022-10-16T00:08:32;67.70;;;9.27;;
4049;SDS011;2039;50.894;6.888;2022-10-16T00:11:02;66.70;;;9.20;;
4049;SDS011;2039;50.894;6.888;2022-10-16T00:13:36;66.77;;;10.13;;
4049;SDS011;2039;50.894;6.888;2022-10-16T00:16:04;68.50;;;10.13;;
4049;SDS011;2039;50.894;6.888;2022-10-16T00:18:30;72.70;;;9.93;;
4049;SDS011;2039;50.894;6.888;2022-10-16T00:21:00;67.90;;;11.47;;
4049;SDS011;2039;50.894;6.888;2022-10-16T00:23:34;68.53;;;11.63;;
4049;SDS011;2039;50.894;6.888;2022-10-16T00:26:01;67.60;;;10.20;;
4049;SDS011;2039;50.894;6.888;2022-10-16T00:28:30;67.10;;;9.83;;
4049;SDS011;2039;50.894;6.888;2022-10-16T00:30:55;67.63;;;10.13;;
4049;SDS011;2039;50.894;6.888;2022-10-16T00:33:22;67.27;;;10.93;;
4049;SDS011;2039;50.894;6.888;2022-10-16T00:35:48;69.00;;;11.60;;
4049;SDS011;2039;50.894;6.888;2022-10-16T00:38:14;68.00;;;12.10;;
4049;SDS011;2039;50.894;6.888;2022-10-16T00:40:40;71.80;;;11.10;;
4049;SDS011;2039;50.894;6.888;2022-10-16T00:43:12;68.27;;;12.83;;
4049;SDS011;2039;50.894;6.888;2022-10-16T00:45:59;70.23;;;15.20;;
4049;SDS011;2039;50.894;6.888;2022-10-16T00:48:26;69.20;;;15.40;;
4049;SDS011;2039;50.894;6.888;2022-10-16T00:50:52;71.27;;;17.00;;
4049;SDS011;2039;50.894;6.888;2022-10-16T00:53:18;68.07;;;12.40;;
4049;SDS011;2039;50.894;6.888;2022-10-16T00:55:44;68.63;;;12.10;;
4049;SDS011;2039;50.894;6.888;2022-10-16T00:58:11;68.60;;;13.03;;
4049;SDS011;2039;50.894;6.888;2022-10-16T01:00:37;69.77;;;16.70;;
4049;SDS011;2039;50.894;6.888;2022-10-16T01:03:03;69.00;;;13.30;;
4049;SDS011;2039;50.894;6.888;2022-10-16T01:05:49;68.03;;;12.80;;
4049;SDS011;2039;50.894;6.888;2022-10-16T01:08:31;69.07;;;13.20;;
4049;SDS011;2039;50.894;6.888;2022-10-16T01:14:08;68.07;;;10.83;;
4049;SDS011;2039;50.894;6.888;2022-10-16T01:16:48;69.20;;;12.30;;
4049;SDS011;2039;50.894;6.888;2022-10-16T01:22:21;68.00;;;12.33;;
4049;SDS011;2039;50.894;6.888;2022-10-16T01:24:59;69.70;;;10.80;;
4049;SDS011;2039;50.894;6.888;2022-10-16T01:27:30;67.60;;;10.57;;
4049;SDS011;2039;50.894;6.888;2022-10-16T01:30:22;69.43;;;9.53;;
4049;SDS011;2039;50.894;6.888;2022-10-16T01:32:59;71.00;;;9.67;;
4049;SDS011;2039;50.894;6.888;2022-10-16T01:35:35;72.93;;;12.10;;
4049;SDS011;2039;50.894;6.888;2022-10-16T01:38:12;69.70;;;16.30;;
4049;SDS011;2039;50.894;6.888;2022-10-16T01:40:48;69.50;;;15.97;;
4049;SDS011;2039;50.894;6.888;2022-10-16T01:43:21;68.83;;;15.30;;
4049;SDS011;2039;50.894;6.888;2022-10-16T01:45:53;71.27;;;15.97;;
4049;SDS011;2039;50.894;6.888;2022-10-16T01:48:20;69.87;;;14.37;;
4049;SDS011;2039;50.894;6.888;2022-10-16T01:50:53;68.50;;;12.50;;
4049;SDS011;2039;50.894;6.888;2022-10-16T01:53:25;69.77;;;13.10;;
4049;SDS011;2039;50.894;6.888;2022-10-16T01:55:51;69.97;;;13.50;;
4049;SDS011;2039;50.894;6.888;2022-10-16T01:58:19;67.97;;;11.67;;
4049;SDS011;2039;50.894;6.888;2022-10-16T02:00:46;68.73;;;13.27;;
4049;SDS011;2039;50.894;6.888;2022-10-16T02:03:13;72.33;;;15.27;;
4049;SDS011;2039;50.894;6.888;2022-10-16T02:08:12;71.40;;;17.80;;
4049;SDS011;2039;50.894;6.888;2022-10-16T02:10:38;70.87;;;18.47;;
4049;SDS011;2039;50.894;6.888;2022-10-16T02:16:07;74.13;;;20.10;;
4049;SDS011;2039;50.894;6.888;2022-10-16T02:18:34;71.50;;;20.13;;
4049;SDS011;2039;50.894;6.888;2022-10-16T02:21:09;72.50;;;19.10;;
4049;SDS011;2039;50.894;6.888;2022-10-16T02:24:02;73.50;;;23.63;;
4049;SDS011;2039;50.894;6.888;2022-10-16T02:26:42;72.30;;;26.17;;
4049;SDS011;2039;50.894;6.888;2022-10-16T02:29:30;73.87;;;28.53;;
4049;SDS011;2039;50.894;6.888;2022-10-16T02:32:01;72.37;;;24.53;;
4049;SDS011;2039;50.894;6.888;2022-10-16T02:34:29;72.47;;;26.07;;
4049;SDS011;2039;50.894;6.888;2022-10-16T02:36:57;72.20;;;22.60;;
4049;SDS011;2039;50.894;6.888;2022-10-16T02:39:24;71.27;;;19.93;;
4049;SDS011;2039;50.894;6.888;2022-10-16T02:41:52;70.67;;;16.97;;
4049;SDS011;2039;50.894;6.888;2022-10-16T02:44:17;69.57;;;16.33;;
4049;SDS011;2039;50.894;6.888;2022-10-16T02:46:43;69.27;;;15.27;;
4049;SDS011;2039;50.894;6.888;2022-10-16T02:49:09;70.53;;;14.97;;
4049;SDS011;2039;50.894;6.888;2022-10-16T02:51:34;69.00;;;14.70;;
4049;SDS011;2039;50.894;6.888;2022-10-16T02:54:01;67.57;;;11.47;;
4049;SDS011;2039;50.894;6.888;2022-10-16T02:56:29;68.70;;;14.10;;
4049;SDS011;2039;50.894;6.888;2022-10-16T02:58:55;68.07;;;11.60;;
4049;SDS011;2039;50.894;6.888;2022-10-16T03:01:21;72.67;;;14.70;;
4049;SDS011;2039;50.894;6.888;2022-10-16T03:03:48;69.47;;;13.33;;
4049;SDS011;2039;50.894;6.888;2022-10-16T03:06:13;67.87;;;11.50;;
4049;SDS011;2039;50.894;6.888;2022-10-16T03:08:42;68.47;;;10.73;;
4049;SDS011;2039;50.894;6.888;2022-10-16T03:11:10;67.10;;;10.07;;
4049;SDS011;2039;50.894;6.888;2022-10-16T03:13:36;68.60;;;11.30;;
4049;SDS011;2039;50.894;6.888;2022-10-16T03:16:02;66.63;;;11.13;;
4049;SDS011;2039;50.894;6.888;2022-10-16T03:18:28;67.30;;;11.80;;
4049;SDS011;2039;50.894;6.888;2022-10-16T03:20:53;66.50;;;9.53;;
4049;SDS011;2039;50.894;6.888;2022-10-16T03:23:19;70.23;;;10.90;;
4049;SDS011;2039;50.894;6.888;2022-10-16T03:25:44;66.47;;;10.53;;
4049;SDS011;2039;50.894;6.888;2022-10-16T03:28:10;67.27;;;11.20;;
4049;SDS011;2039;50.894;6.888;2022-10-16T03:30:36;66.73;;;11.43;;
4049;SDS011;2039;50.894;6.888;2022-10-16T03:33:04;65.97;;;9.40;;
4049;SDS011;2039;50.894;6.888;2022-10-16T03:35:30;66.80;;;10.03;;
4049;SDS011;2039;50.894;6.888;2022-10-16T03:37:57;66.73;;;10.23;;
4049;SDS011;2039;50.894;6.888;2022-10-16T03:40:23;66.60;;;11.53;;
4049;SDS011;2039;50.894;6.888;2022-10-16T03:42:49;67.37;;;12.30;;
4049;SDS011;2039;50.894;6.888;2022-10-16T03:45:15;68.30;;;9.93;;
4049;SDS011;2039;50.894;6.888;2022-10-16T03:47:41;68.67;;;12.37;;
4049;SDS011;2039;50.894;6.888;2022-10-16T03:50:07;67.67;;;10.70;;
4049;SDS011;2039;50.894;6.888;2022-10-16T03:52:33;67.17;;;10.17;;
4049;SDS011;2039;50.894;6.888;2022-10-16T03:54:59;67.97;;;10.80;;
4049;SDS011;2039;50.894;6.888;2022-10-16T03:57:25;67.90;;;11.50;;
4049;SDS011;2039;50.894;6.888;2022-10-16T03:59:50;67.10;;;10.90;;
4049;SDS011;2039;50.894;6.888;2022-10-16T04:02:16;68.00;;;10.70;;
4049;SDS011;2039;50.894;6.888;2022-10-16T04:04:42;67.27;;;11.17;;
4049;SDS011;2039;50.894;6.888;2022-10-16T04:07:07;67.67;;;12.80;;
4049;SDS011;2039;50.894;6.888;2022-10-16T04:09:33;68.60;;;14.80;;
4049;SDS011;2039;50.894;6.888;2022-10-16T04:11:59;68.83;;;13.13;;
4049;SDS011;2039;50.894;6.888;2022-10-16T04:14:24;68.03;;;14.17;;
4049;SDS011;2039;50.894;6.888;2022-10-16T04:16:50;67.40;;;10.80;;
4049;SDS011;2039;50.894;6.888;2022-10-16T04:19:15;67.53;;;12.70;;
4049;SDS011;2039;50.894;6.888;2022-10-16T04:21:41;67.13;;;10.43;;
4049;SDS011;2039;50.894;6.888;2022-10-16T04:24:07;66.10;;;10.37;;
4049;SDS011;2039;50.894;6.888;2022-10-16T04:26:33;70.20;;;10.27;;
4049;SDS011;2039;50.894;6.888;2022-10-16T04:28:58;67.90;;;10.80;;
4049;SDS011;2039;50.894;6.888;2022-10-16T04:31:24;67.13;;;10.37;;
4049;SDS011;2039;50.894;6.888;2022-10-16T04:33:50;68.57;;;13.40;;
4049;SDS011;2039;50.894;6.888;2022-10-16T04:36:15;66.77;;;10.50;;
4049;SDS011;2039;50.894;6.888;2022-10-16T04:38:41;67.97;;;13.30;;
4049;SDS011;2039;50.894;6.888;2022-10-16T04:41:07;67.70;;;11.20;;
4049;SDS011;2039;50.894;6.888;2022-10-16T04:43:33;68.00;;;14.70;;
4049;SDS011;2039;50.894;6.888;2022-10-16T04:45:59;70.60;;;14.37;;
4049;SDS011;2039;50.894;6.888;2022-10-16T04:48:24;70.90;;;19.17;;
4049;SDS011;2039;50.894;6.888;2022-10-16T04:50:50;72.57;;;25.93;;
4049;SDS011;2039;50.894;6.888;2022-10-16T04:53:16;71.30;;;21.90;;
4049;SDS011;2039;50.894;6.888;2022-10-16T04:55:42;69.03;;;13.30;;
4049;SDS011;2039;50.894;6.888;2022-10-16T04:58:08;67.97;;;11.73;;
4049;SDS011;2039;50.894;6.888;2022-10-16T05:00:34;68.60;;;9.50;;
4049;SDS011;2039;50.894;6.888;2022-10-16T05:03:00;69.30;;;11.73;;
4049;SDS011;2039;50.894;6.888;2022-10-16T05:05:27;67.80;;;10.27;;
4049;SDS011;2039;50.894;6.888;2022-10-16T05:07:53;70.40;;;13.73;;
4049;SDS011;2039;50.894;6.888;2022-10-16T05:10:18;67.80;;;11.90;;
4049;SDS011;2039;50.894;6.888;2022-10-16T05:12:44;71.77;;;14.87;;
4049;SDS011;2039;50.894;6.888;2022-10-16T05:15:11;71.37;;;12.80;;
4049;SDS011;2039;50.894;6.888;2022-10-16T05:17:37;72.63;;;15.13;;
4049;SDS011;2039;50.894;6.888;2022-10-16T05:20:03;68.47;;;12.93;;
4049;SDS011;2039;50.894;6.888;2022-10-16T05:22:29;69.53;;;13.13;;
4049;SDS011;2039;50.894;6.888;2022-10-16T05:24:54;68.27;;;14.50;;
4049;SDS011;2039;50.894;6.888;2022-10-16T05:27:20;70.67;;;18.33;;
4049;SDS011;2039;50.894;6.888;2022-10-16T05:29:46;68.53;;;15.30;;
4049;SDS011;2039;50.894;6.888;2022-10-16T05:32:13;69.50;;;13.40;;
4049;SDS011;2039;50.894;6.888;2022-10-16T05:34:43;69.40;;;11.63;;
4049;SDS011;2039;50.894;6.888;2022-10-16T05:37:09;66.47;;;10.70;;
4049;SDS011;2039;50.894;6.888;2022-10-16T05:39:36;67.50;;;13.03;;
4049;SDS011;2039;50.894;6.888;2022-10-16T05:42:08;68.30;;;12.43;;
4049;SDS011;2039;50.894;6.888;2022-10-16T05:44:34;67.90;;;12.20;;
4049;SDS011;2039;50.894;6.888;2022-10-16T05:46:59;68.47;;;14.90;;
4049;SDS011;2039;50.894;6.888;2022-10-16T05:49:25;68.60;;;11.40;;
4049;SDS011;2039;50.894;6.888;2022-10-16T05:51:51;69.40;;;14.87;;
4049;SDS011;2039;50.894;6.888;2022-10-16T05:54:16;69.30;;;11.80;;
4049;SDS011;2039;50.894;6.888;2022-10-16T05:56:42;67.50;;;11.00;;
4049;SDS011;2039;50.894;6.888;2022-10-16T05:59:08;69.80;;;14.63;;
4049;SDS011;2039;50.894;6.888;2022-10-16T06:01:34;68.87;;;13.50;;
4049;SDS011;2039;50.894;6.888;2022-10-16T06:04:00;70.97;;;15.60;;
4049;SDS011;2039;50.894;6.888;2022-10-16T06:06:27;71.73;;;18.23;;
4049;SDS011;2039;50.894;6.888;2022-10-16T06:08:55;71.63;;;21.20;;
4049;SDS011;2039;50.894;6.888;2022-10-16T06:11:23;70.50;;;19.37;;
4049;SDS011;2039;50.894;6.888;2022-10-16T06:13:51;71.47;;;19.37;;
4049;SDS011;2039;50.894;6.888;2022-10-16T06:16:18;71.87;;;17.87;;
4049;SDS011;2039;50.894;6.888;2022-10-16T06:18:47;73.33;;;17.67;;
4049;SDS011;2039;50.894;6.888;2022-10-16T06:21:16;72.17;;;22.13;;
4049;SDS011;2039;50.894;6.888;2022-10-16T06:23:44;73.67;;;24.17;;
4049;SDS011;2039;50.894;6.888;2022-10-16T06:26:17;76.50;;;28.53;;
4049;SDS011;2039;50.894;6.888;2022-10-16T06:28:44;79.03;;;35.43;;
4049;SDS011;2039;50.894;6.888;2022-10-16T06:31:11;78.53;;;37.07;;
4049;SDS011;2039;50.894;6.888;2022-10-16T06:33:37;76.47;;;33.77;;
4049;SDS011;2039;50.894;6.888;2022-10-16T06:36:15;79.10;;;37.20;;
4049;SDS011;2039;50.894;6.888;2022-10-16T06:38:43;76.00;;;34.30;;
4049;SDS011;2039;50.894;6.888;2022-10-16T06:41:13;75.27;;;31.23;;
4049;SDS011;2039;50.894;6.888;2022-10-16T06:43:40;78.33;;;37.13;;
4049;SDS011;2039;50.894;6.888;2022-10-16T06:46:07;76.00;;;34.30;;
4049;SDS011;2039;50.894;6.888;2022-10-16T06:48:34;76.27;;;34.23;;
4049;SDS011;2039;50.894;6.888;2022-10-16T06:51:02;76.10;;;34.73;;
4049;SDS011;2039;50.894;6.888;2022-10-16T06:53:30;76.63;;;35.43;;
4049;SDS011;2039;50.894;6.888;2022-10-16T06:56:34;79.70;;;39.53;;
4049;SDS011;2039;50.894;6.888;2022-10-16T06:58:54;79.50;;;35.43;;
4049;SDS011;2039;50.894;6.888;2022-10-16T07:01:21;77.47;;;31.10;;
4049;SDS011;2039;50.894;6.888;2022-10-16T07:03:48;77.27;;;34.73;;
4049;SDS011;2039;50.894;6.888;2022-10-16T07:06:15;78.90;;;31.50;;
4049;SDS011;2039;50.894;6.888;2022-10-16T07:08:43;74.37;;;24.57;;
4049;SDS011;2039;50.894;6.888;2022-10-16T07:11:14;74.10;;;27.07;;
4049;SDS011;2039;50.894;6.888;2022-10-16T07:13:42;71.47;;;20.50;;
4049;SDS011;2039;50.894;6.888;2022-10-16T07:18:36;71.97;;;22.80;;
4049;SDS011;2039;50.894;6.888;2022-10-16T07:21:07;78.30;;;19.73;;
4049;SDS011;2039;50.894;6.888;2022-10-16T07:23:35;69.53;;;13.47;;
4049;SDS011;2039;50.894;6.888;2022-10-16T07:26:01;69.00;;;14.67;;
4049;SDS011;2039;50.894;6.888;2022-10-16T07:28:27;68.97;;;12.10;;
4049;SDS011;2039;50.894;6.888;2022-10-16T07:30:53;68.53;;;10.77;;
4049;SDS011;2039;50.894;6.888;2022-10-16T07:33:19;69.27;;;13.20;;
4049;SDS011;2039;50.894;6.888;2022-10-16T07:35:52;69.13;;;14.53;;
4049;SDS011;2039;50.894;6.888;2022-10-16T07:38:19;67.97;;;11.83;;
4049;SDS011;2039;50.894;6.888;2022-10-16T07:40:55;67.50;;;10.73;;
4049;SDS011;2039;50.894;6.888;2022-10-16T07:43:23;67.40;;;10.00;;
4049;SDS011;2039;50.894;6.888;2022-10-16T07:45:49;67.50;;;11.07;;
4049;SDS011;2039;50.894;6.888;2022-10-16T07:48:17;67.07;;;11.20;;
4049;SDS011;2039;50.894;6.888;2022-10-16T07:50:44;70.70;;;12.60;;
4049;SDS011;2039;50.894;6.888;2022-10-16T07:53:10;69.57;;;11.67;;
4049;SDS011;2039;50.894;6.888;2022-10-16T07:55:37;71.70;;;12.63;;
4049;SDS011;2039;50.894;6.888;2022-10-16T07:58:03;70.87;;;12.23;;
4049;SDS011;2039;50.894;6.888;2022-10-16T08:00:29;71.33;;;11.80;;
4049;SDS011;2039;50.894;6.888;2022-10-16T08:02:56;71.07;;;15.00;;
4049;SDS011;2039;50.894;6.888;2022-10-16T08:05:25;71.10;;;15.90;;
4049;SDS011;2039;50.894;6.888;2022-10-16T08:07:52;70.17;;;13.93;;
4049;SDS011;2039;50.894;6.888;2022-10-16T08:10:21;72.70;;;15.03;;
4049;SDS011;2039;50.894;6.888;2022-10-16T08:12:48;69.03;;;14.50;;
4049;SDS011;2039;50.894;6.888;2022-10-16T08:15:14;71.50;;;15.50;;
4049;SDS011;2039;50.894;6.888;2022-10-16T08:17:39;71.63;;;18.10;;
4049;SDS011;2039;50.894;6.888;2022-10-16T08:20:05;69.90;;;15.63;;
4049;SDS011;2039;50.894;6.888;2022-10-16T08:22:31;73.60;;;22.53;;
4049;SDS011;2039;50.894;6.888;2022-10-16T08:24:57;73.70;;;18.93;;
4049;SDS011;2039;50.894;6.888;2022-10-16T08:27:23;71.60;;;20.47;;
4049;SDS011;2039;50.894;6.888;2022-10-16T08:29:48;71.23;;;19.50;;
4049;SDS011;2039;50.894;6.888;2022-10-16T08:32:14;69.87;;;19.00;;
4049;SDS011;2039;50.894;6.888;2022-10-16T08:34:40;72.17;;;12.37;;
4049;SDS011;2039;50.894;6.888;2022-10-16T08:37:06;69.07;;;15.13;;
4049;SDS011;2039;50.894;6.888;2022-10-16T08:39:33;68.63;;;11.67;;
4049;SDS011;2039;50.894;6.888;2022-10-16T08:44:54;73.00;;;13.20;;
4049;SDS011;2039;50.894;6.888;2022-10-16T08:50:24;69.50;;;10.33;;
4049;SDS011;2039;50.894;6.888;2022-10-16T08:52:52;67.50;;;10.27;;
4049;SDS011;2039;50.894;6.888;2022-10-16T08:55:28;67.63;;;12.90;;
4049;SDS011;2039;50.894;6.888;2022-10-16T08:57:59;68.70;;;10.87;;
4049;SDS011;2039;50.894;6.888;2022-10-16T09:00:55;67.90;;;10.33;;
4049;SDS011;2039;50.894;6.888;2022-10-16T09:06:16;66.43;;;10.07;;
4049;SDS011;2039;50.894;6.888;2022-10-16T09:12:11;66.57;;;13.60;;
4049;SDS011;2039;50.894;6.888;2022-10-16T09:18:03;67.37;;;14.97;;
4049;SDS011;2039;50.894;6.888;2022-10-16T09:23:39;65.87;;;10.43;;
4049;SDS011;2039;50.894;6.888;2022-10-16T09:26:05;66.00;;;9.23;;
4049;SDS011;2039;50.894;6.888;2022-10-16T09:28:35;66.20;;;10.27;;
4049;SDS011;2039;50.894;6.888;2022-10-16T09:31:00;66.47;;;12.43;;
4049;SDS011;2039;50.894;6.888;2022-10-16T09:33:30;66.60;;;11.40;;
4049;SDS011;2039;50.894;6.888;2022-10-16T09:36:00;66.07;;;10.57;;
4049;SDS011;2039;50.894;6.888;2022-10-16T09:38:32;64.33;;;6.37;;
4049;SDS011;2039;50.894;6.888;2022-10-16T09:41:01;64.17;;;4.00;;
4049;SDS011;2039;50.894;6.888;2022-10-16T09:46:21;67.03;;;3.87;;
4049;SDS011;2039;50.894;6.888;2022-10-16T09:48:56;64.20;;;4.97;;
4049;SDS011;2039;50.894;6.888;2022-10-16T09:51:28;65.37;;;3.87;;
4049;SDS011;2039;50.894;6.888;2022-10-16T09:53:59;64.37;;;4.00;;
4049;SDS011;2039;50.894;6.888;2022-10-16T09:56:27;66.50;;;4.97;;
4049;SDS011;2039;50.894;6.888;2022-10-16T09:58:54;66.37;;;3.80;;
4049;SDS011;2039;50.894;6.888;2022-10-16T10:01:30;64.40;;;3.40;;
4049;SDS011;2039;50.894;6.888;2022-10-16T10:04:02;64.90;;;3.43;;
4049;SDS011;2039;50.894;6.888;2022-10-16T10:06:29;65.70;;;3.90;;
4049;SDS011;2039;50.894;6.888;2022-10-16T10:11:51;68.60;;;14.50;;
4049;SDS011;2039;50.894;6.888;2022-10-16T10:14:18;67.90;;;15.43;;
4049;SDS011;2039;50.894;6.888;2022-10-16T10:19:37;68.90;;;15.50;;
4049;SDS011;2039;50.894;6.888;2022-10-16T10:22:16;67.80;;;12.60;;
4049;SDS011;2039;50.894;6.888;2022-10-16T10:30:47;66.43;;;7.03;;
4049;SDS011;2039;50.894;6.888;2022-10-16T10:33:20;66.20;;;6.53;;
4049;SDS011;2039;50.894;6.888;2022-10-16T10:38:24;71.70;;;7.20;;
4049;SDS011;2039;50.894;6.888;2022-10-16T10:41:05;65.83;;;5.90;;
4049;SDS011;2039;50.894;6.888;2022-10-16T10:44:10;67.10;;;6.73;;
4049;SDS011;2039;50.894;6.888;2022-10-16T10:46:45;67.20;;;7.80;;
4049;SDS011;2039;50.894;6.888;2022-10-16T10:49:27;70.17;;;7.30;;
4049;SDS011;2039;50.894;6.888;2022-10-16T10:59:52;66.07;;;3.87;;
4049;SDS011;2039;50.894;6.888;2022-10-16T11:05:31;66.97;;;3.13;;
4049;SDS011;2039;50.894;6.888;2022-10-16T11:10:58;65.37;;;2.90;;
4049;SDS011;2039;50.894;6.888;2022-10-16T11:13:36;65.67;;;2.20;;
4049;SDS011;2039;50.894;6.888;2022-10-16T11:21:36;65.40;;;2.30;;
4049;SDS011;2039;50.894;6.888;2022-10-16T11:24:23;67.57;;;3.67;;
4049;SDS011;2039;50.894;6.888;2022-10-16T11:27:00;65.57;;;3.77;;
4049;SDS011;2039;50.894;6.888;2022-10-16T11:29:33;66.77;;;4.57;;
4049;SDS011;2039;50.894;6.888;2022-10-16T11:32:11;66.60;;;4.73;;
4049;SDS011;2039;50.894;6.888;2022-10-16T11:34:50;68.60;;;6.20;;
4049;SDS011;2039;50.894;6.888;2022-10-16T11:37:21;68.00;;;6.03;;
4049;SDS011;2039;50.894;6.888;2022-10-16T11:39:50;68.40;;;6.53;;
4049;SDS011;2039;50.894;6.888;2022-10-16T11:42:25;65.93;;;4.13;;
4049;SDS011;2039;50.894;6.888;2022-10-16T11:47:31;66.27;;;5.50;;
4049;SDS011;2039;50.894;6.888;2022-10-16T11:53:03;67.87;;;7.37;;
4049;SDS011;2039;50.894;6.888;2022-10-16T11:55:34;67.27;;;5.73;;
4049;SDS011;2039;50.894;6.888;2022-10-16T11:58:04;68.10;;;6.60;;
4049;SDS011;2039;50.894;6.888;2022-10-16T12:00:44;67.47;;;6.00;;
4049;SDS011;2039;50.894;6.888;2022-10-16T12:08:31;71.03;;;9.10;;
4049;SDS011;2039;50.894;6.888;2022-10-16T12:11:35;72.00;;;6.90;;
4049;SDS011;2039;50.894;6.888;2022-10-16T12:16:38;67.77;;;8.07;;
4049;SDS011;2039;50.894;6.888;2022-10-16T12:19:16;70.40;;;10.53;;
4049;SDS011;2039;50.894;6.888;2022-10-16T12:21:43;68.20;;;8.47;;
4049;SDS011;2039;50.894;6.888;2022-10-16T12:27:18;68.23;;;8.10;;
4049;SDS011;2039;50.894;6.888;2022-10-16T12:29:48;67.30;;;6.90;;
4049;SDS011;2039;50.894;6.888;2022-10-16T12:32:34;67.13;;;5.60;;
4049;SDS011;2039;50.894;6.888;2022-10-16T12:35:03;66.73;;;6.67;;
4049;SDS011;2039;50.894;6.888;2022-10-16T12:37:35;66.57;;;4.80;;
4049;SDS011;2039;50.894;6.888;2022-10-16T12:43:10;70.10;;;6.10;;
4049;SDS011;2039;50.894;6.888;2022-10-16T12:46:03;68.00;;;9.10;;
4049;SDS011;2039;50.894;6.888;2022-10-16T12:48:44;68.50;;;10.07;;
4049;SDS011;2039;50.894;6.888;2022-10-16T12:51:22;69.53;;;11.03;;
4049;SDS011;2039;50.894;6.888;2022-10-16T13:02:18;68.37;;;12.13;;
4049;SDS011;2039;50.894;6.888;2022-10-16T13:05:19;69.37;;;11.37;;
4049;SDS011;2039;50.894;6.888;2022-10-16T13:29:20;66.70;;;6.43;;
4049;SDS011;2039;50.894;6.888;2022-10-16T13:31:46;67.60;;;8.40;;
4049;SDS011;2039;50.894;6.888;2022-10-16T13:34:14;69.30;;;9.57;;
4049;SDS011;2039;50.894;6.888;2022-10-16T13:36:44;67.23;;;8.40;;
4049;SDS011;2039;50.894;6.888;2022-10-16T13:39:13;69.67;;;7.17;;
4049;SDS011;2039;50.894;6.888;2022-10-16T13:42:06;67.40;;;8.73;;
4049;SDS011;2039;50.894;6.888;2022-10-16T13:44:41;66.80;;;7.40;;
4049;SDS011;2039;50.894;6.888;2022-10-16T13:47:17;67.33;;;6.70;;
4049;SDS011;2039;50.894;6.888;2022-10-16T13:49:45;74.27;;;8.80;;
4049;SDS011;2039;50.894;6.888;2022-10-16T13:52:15;70.23;;;6.77;;
4049;SDS011;2039;50.894;6.888;2022-10-16T13:54:42;69.83;;;8.57;;
4049;SDS011;2039;50.894;6.888;2022-10-16T13:57:11;68.20;;;9.67;;
4049;SDS011;2039;50.894;6.888;2022-10-16T13:59:39;67.37;;;6.20;;
4049;SDS011;2039;50.894;6.888;2022-10-16T14:02:14;69.87;;;7.90;;
4049;SDS011;2039;50.894;6.888;2022-10-16T14:04:52;69.27;;;8.07;;
4049;SDS011;2039;50.894;6.888;2022-10-16T14:07:26;68.50;;;10.03;;
4049;SDS011;2039;50.894;6.888;2022-10-16T14:09:53;69.47;;;7.53;;
4049;SDS011;2039;50.894;6.888;2022-10-16T14:12:20;67.53;;;9.13;;
4049;SDS011;2039;50.894;6.888;2022-10-16T14:14:49;67.97;;;9.00;;
4049;SDS011;2039;50.894;6.888;2022-10-16T14:17:27;69.37;;;10.67;;
4049;SDS011;2039;50.894;6.888;2022-10-16T14:19:58;67.40;;;7.87;;
4049;SDS011;2039;50.894;6.888;2022-10-16T14:22:35;68.10;;;8.00;;
4049;SDS011;2039;50.894;6.888;2022-10-16T14:25:24;66.50;;;6.03;;
4049;SDS011;2039;50.894;6.888;2022-10-16T14:28:00;66.17;;;4.67;;
4049;SDS011;2039;50.894;6.888;2022-10-16T14:30:28;66.67;;;4.53;;
4049;SDS011;2039;50.894;6.888;2022-10-16T14:32:59;65.33;;;3.30;;
4049;SDS011;2039;50.894;6.888;2022-10-16T14:38:00;65.80;;;2.67;;
4049;SDS011;2039;50.894;6.888;2022-10-16T14:40:31;65.47;;;2.90;;
4049;SDS011;2039;50.894;6.888;2022-10-16T14:42:59;68.47;;;3.10;;
4049;SDS011;2039;50.894;6.888;2022-10-16T14:45:28;68.43;;;2.57;;
4049;SDS011;2039;50.894;6.888;2022-10-16T14:48:13;65.20;;;3.50;;
4049;SDS011;2039;50.894;6.888;2022-10-16T14:50:42;66.83;;;3.27;;
4049;SDS011;2039;50.894;6.888;2022-10-16T14:53:10;65.90;;;2.90;;
4049;SDS011;2039;50.894;6.888;2022-10-16T14:55:37;66.03;;;2.70;;
4049;SDS011;2039;50.894;6.888;2022-10-16T14:58:03;67.23;;;3.80;;
4049;SDS011;2039;50.894;6.888;2022-10-16T15:00:29;67.10;;;3.27;;
4049;SDS011;2039;50.894;6.888;2022-10-16T15:02:55;65.37;;;3.47;;
4049;SDS011;2039;50.894;6.888;2022-10-16T15:07:49;66.30;;;3.83;;
4049;SDS011;2039;50.894;6.888;2022-10-16T15:10:18;66.47;;;4.27;;
4049;SDS011;2039;50.894;6.888;2022-10-16T15:12:46;65.17;;;2.80;;
4049;SDS011;2039;50.894;6.888;2022-10-16T15:15:23;66.17;;;3.10;;
4049;SDS011;2039;50.894;6.888;2022-10-16T15:18:06;65.73;;;3.50;;
4049;SDS011;2039;50.894;6.888;2022-10-16T15:20:36;66.60;;;2.70;;
4049;SDS011;2039;50.894;6.888;2022-10-16T15:23:10;66.67;;;2.70;;
4049;SDS011;2039;50.894;6.888;2022-10-16T15:25:47;65.77;;;3.77;;
4049;SDS011;2039;50.894;6.888;2022-10-16T15:28:15;65.87;;;4.87;;
4049;SDS011;2039;50.894;6.888;2022-10-16T15:30:41;68.20;;;11.63;;
4049;SDS011;2039;50.894;6.888;2022-10-16T15:33:14;67.23;;;9.73;;
4049;SDS011;2039;50.894;6.888;2022-10-16T15:35:47;68.80;;;12.27;;
4049;SDS011;2039;50.894;6.888;2022-10-16T15:38:17;70.40;;;12.80;;
4049;SDS011;2039;50.894;6.888;2022-10-16T15:40:44;68.50;;;14.30;;
4049;SDS011;2039;50.894;6.888;2022-10-16T15:43:10;70.50;;;18.80;;
4049;SDS011;2039;50.894;6.888;2022-10-16T15:45:36;68.93;;;14.60;;
4049;SDS011;2039;50.894;6.888;2022-10-16T15:48:02;73.63;;;18.80;;
4049;SDS011;2039;50.894;6.888;2022-10-16T15:50:28;69.67;;;17.57;;
4049;SDS011;2039;50.894;6.888;2022-10-16T15:52:56;69.83;;;17.17;;
4049;SDS011;2039;50.894;6.888;2022-10-16T15:55:22;69.20;;;17.50;;
4049;SDS011;2039;50.894;6.888;2022-10-16T15:57:48;69.37;;;14.97;;
4049;SDS011;2039;50.894;6.888;2022-10-16T16:00:15;67.37;;;13.37;;
4049;SDS011;2039;50.894;6.888;2022-10-16T16:02:43;68.13;;;10.53;;
4049;SDS011;2039;50.894;6.888;2022-10-16T16:05:14;65.10;;;6.80;;
4049;SDS011;2039;50.894;6.888;2022-10-16T16:07:39;65.63;;;6.83;;
4049;SDS011;2039;50.894;6.888;2022-10-16T16:10:06;66.23;;;8.27;;
4049;SDS011;2039;50.894;6.888;2022-10-16T16:12:33;65.27;;;7.20;;
4049;SDS011;2039;50.894;6.888;2022-10-16T16:14:59;65.20;;;6.13;;
4049;SDS011;2039;50.894;6.888;2022-10-16T16:17:25;65.40;;;6.93;;
4049;SDS011;2039;50.894;6.888;2022-10-16T16:19:50;64.50;;;5.70;;
4049;SDS011;2039;50.894;6.888;2022-10-16T16:22:17;64.57;;;5.67;;
4049;SDS011;2039;50.894;6.888;2022-10-16T16:24:43;66.97;;;5.93;;
4049;SDS011;2039;50.894;6.888;2022-10-16T16:27:08;64.50;;;4.93;;
4049;SDS011;2039;50.894;6.888;2022-10-16T16:29:34;65.07;;;5.27;;
4049;SDS011;2039;50.894;6.888;2022-10-16T16:32:00;64.60;;;5.53;;
4049;SDS011;2039;50.894;6.888;2022-10-16T16:34:26;66.00;;;5.03;;
4049;SDS011;2039;50.894;6.888;2022-10-16T16:36:53;65.00;;;4.80;;
4049;SDS011;2039;50.894;6.888;2022-10-16T16:39:19;65.97;;;5.30;;
4049;SDS011;2039;50.894;6.888;2022-10-16T16:41:45;65.30;;;5.20;;
4049;SDS011;2039;50.894;6.888;2022-10-16T16:44:12;64.47;;;4.57;;
4049;SDS011;2039;50.894;6.888;2022-10-16T16:46:38;65.27;;;5.13;;
4049;SDS011;2039;50.894;6.888;2022-10-16T16:49:05;64.63;;;4.60;;
4049;SDS011;2039;50.894;6.888;2022-10-16T16:51:31;66.43;;;5.30;;
4049;SDS011;2039;50.894;6.888;2022-10-16T16:53:58;66.17;;;5.70;;
4049;SDS011;2039;50.894;6.888;2022-10-16T16:56:24;67.03;;;5.50;;
4049;SDS011;2039;50.894;6.888;2022-10-16T16:58:52;68.20;;;6.10;;
4049;SDS011;2039;50.894;6.888;2022-10-16T17:01:20;64.67;;;5.43;;
4049;SDS011;2039;50.894;6.888;2022-10-16T17:03:49;67.23;;;5.00;;
4049;SDS011;2039;50.894;6.888;2022-10-16T17:06:17;65.43;;;5.20;;
4049;SDS011;2039;50.894;6.888;2022-10-16T17:08:46;66.47;;;5.07;;
4049;SDS011;2039;50.894;6.888;2022-10-16T17:11:13;64.30;;;5.33;;